sensor_id;sensor_type;location;lat;lon;timestamp;pressure;altitude;pressure_sealevel;temperature;humidity
49571;BME280;36970;39.352;20.286;2022-08-19T00:25:38;99166.81;;;24.15;88.56
49571;BME280;36970;39.352;20.286;2022-08-19T00:55:45;99145.09;;;23.74;94.82
49571;BME280;36970;39.352;20.286;2022-08-19T01:25:51;99135.91;;;23.70;91.47
49571;BME280;36970;39.352;20.286;2022-08-19T01:55:54;99150.84;;;24.22;82.60
49571;BME280;36970;39.352;20.286;2022-08-19T02:25:57;99132.00;;;23.73;83.15
49571;BME280;36970;39.352;20.286;2022-08-19T02:55:59;99140.09;;;24.35;78.38
49571;BME280;36970;39.352;20.286;2022-08-19T03:26:04;99137.81;;;24.07;77.73
49571;BME280;36970;39.352;20.286;2022-08-19T03:56:08;99145.28;;;24.54;100.00
49571;BME280;36970;39.352;20.286;2022-08-19T04:26:13;99163.22;;;23.97;100.00
49571;BME280;36970;39.352;20.286;2022-08-19T04:56:17;99168.00;;;25.12;77.48
49571;BME280;36970;39.352;20.286;2022-08-19T05:26:20;99168.72;;;25.50;87.10
49571;BME280;36970;39.352;20.286;2022-08-19T05:56:22;99167.91;;;26.04;87.88
49571;BME280;36970;39.352;20.286;2022-08-19T06:26:25;99193.38;;;26.77;76.54
49571;BME280;36970;39.352;20.286;2022-08-19T06:56:29;99173.50;;;27.37;86.11
49571;BME280;36970;39.352;20.286;2022-08-19T07:26:39;99173.41;;;27.32;100.00
49571;BME280;36970;39.352;20.286;2022-08-19T07:56:41;99185.16;;;27.19;98.68
49571;BME280;36970;39.352;20.286;2022-08-19T08:26:44;99208.00;;;26.63;100.00
49571;BME280;36970;39.352;20.286;2022-08-19T08:56:48;99240.00;;;27.45;100.00
49571;BME280;36970;39.352;20.286;2022-08-19T09:26:51;99240.94;;;27.85;100.00
49571;BME280;36970;39.352;20.286;2022-08-19T09:56:54;99258.47;;;27.58;100.00
49571;BME280;36970;39.352;20.286;2022-08-19T10:26:57;99241.63;;;27.69;100.00
49571;BME280;36970;39.352;20.286;2022-08-19T10:56:59;99230.25;;;28.64;100.00
49571;BME280;36970;39.352;20.286;2022-08-19T11:27:05;99237.84;;;28.39;100.00
49571;BME280;36970;39.352;20.286;2022-08-19T11:57:08;99243.56;;;28.59;100.00
49571;BME280;36970;39.352;20.286;2022-08-19T12:27:10;99198.00;;;29.53;100.00
49571;BME280;36970;39.352;20.286;2022-08-19T12:57:14;99192.81;;;29.63;100.00
49571;BME280;36970;39.352;20.286;2022-08-19T13:27:16;99186.09;;;30.73;100.00
49571;BME280;36970;39.352;20.286;2022-08-19T13:57:19;99178.38;;;31.86;74.27
49571;BME280;36970;39.352;20.286;2022-08-19T14:27:21;99141.44;;;33.18;43.40
49571;BME280;36970;39.352;20.286;2022-08-19T14:57:24;99128.22;;;32.61;41.07
49571;BME280;36970;39.352;20.286;2022-08-19T15:27:26;99067.84;;;32.67;40.83
49571;BME280;36970;39.352;20.286;2022-08-19T15:57:29;99026.38;;;33.62;40.64
49571;BME280;36970;39.352;20.286;2022-08-19T16:27:31;99010.59;;;31.09;51.21
49571;BME280;36970;39.352;20.286;2022-08-19T16:57:34;99064.16;;;28.75;49.41
49571;BME280;36970;39.352;20.286;2022-08-19T17:27:37;99083.53;;;27.54;80.52
49571;BME280;36970;39.352;20.286;2022-08-19T17:57:39;99093.84;;;26.47;61.57
49571;BME280;36970;39.352;20.286;2022-08-19T18:27:42;99076.38;;;26.21;54.35
49571;BME280;36970;39.352;20.286;2022-08-19T18:57:44;99078.91;;;26.16;54.50
49571;BME280;36970;39.352;20.286;2022-08-19T19:27:47;99078.97;;;25.98;55.90
49571;BME280;36970;39.352;20.286;2022-08-19T19:57:49;99209.00;;;26.32;100.00
49571;BME280;36970;39.352;20.286;2022-08-19T20:27:52;99208.09;;;26.38;100.00
49571;BME280;36970;39.352;20.286;2022-08-19T20:57:54;99199.97;;;25.12;100.00
49571;BME280;36970;39.352;20.286;2022-08-19T21:27:57;99109.88;;;25.52;100.00
49571;BME280;36970;39.352;20.286;2022-08-19T21:57:59;99092.16;;;26.34;73.69
49571;BME280;36970;39.352;20.286;2022-08-19T22:28:05;99080.19;;;25.06;92.30
49571;BME280;36970;39.352;20.286;2022-08-19T22:58:08;99073.25;;;25.77;100.00
49571;BME280;36970;39.352;20.286;2022-08-19T23:28:12;99030.50;;;24.51;100.00
49571;BME280;36970;39.352;20.286;2022-08-19T23:58:17;99036.81;;;24.32;100.00
